메인 페이지
METAR-TAF:

METAR-TAF

공항 :

멜버른 공항

멜버른, 오스트레일리아

위도: 37-40-24S, 경도: 144-50-36E, 고도: 132m

현재 날씨관측

예보는 25분 전, 20:30시(UTC)에 발표되었습니다.
서북서8kt
온도 6°C
습도 87%
기압 1017 hPa
시정 10km 이상
고도 4700ft 상공 구름 보통

METAR: YMML 202030Z 29008KT 9999 SCT047 06/04 Q1017 NOSIG

시각: 06:55 (20:55 UTC)

예보

예보는 3 시간 42분 전, 17:13시(UTC)에 발표되었습니다.
예보 대상 시간: 20일 18시부터 21일 24시까지 (UTC)
12kt
시정 10km 이상
고도 4500ft 상공 구름 많음
21일 0300시부터 (UTC)
서남서12kt
시정 10km 이상
고도 2500ft 상공 구름 조금
고도 4000ft 상공 구름 많음
21일 1100시부터 (UTC)
9kt
시정 10km 이상
고도 4500ft 상공 구름 보통
21일 1800시부터 (UTC)
북북서8kt
시정 10km 이상
고도 2500ft 상공 구름 조금
고도 4000ft 상공 구름 보통

TAF: YMML 201713Z 2018/2124 27012KT 9999 BKN045 FM210300 25012KT 9999 FEW025 BKN040 FM211100 28009KT 9999 SCT045 FM211800 33008KT 9999 FEW025 SCT040

4,000개 이상의 공항 관측 자료 및 예보 (METAR 및 TAF 보고).

지도상에서 검색 가능한 기상관측소가 노란 점과 빨간 점으로 표시되어 있습니다.

기상관측소 명을 보려면 표시 위로 마우스를 이동하세요.

날씨 관측과 예보를 보려면 클릭하세요.

지도 변경 : 확대하려면 엑스 표시가 있는 녹색 버튼, 축소하려면 빼기 표시가 있는 녹색 버튼, 다음 페이지의 지도를 보려면 녹색 화살표를 클릭하세요.


METAR-TAF: